Time;durP1;ratioP1;P1;durP2;ratioP2;P2;SDS_P1;SDS_P2;PMS_P1;PMS_P2;Temp;Humidity;BMP_temperature;BMP_pressure;BME280_temperature;BME280_humidity;BME280_pressure;Samples;Min_cycle;Max_cycle;Signal;HPM_P1;HPM_P2
2022/06/03 00:01:31;;;;;;;9.57;4.40;;;;;;;;;;4991850;28;20042;-84
2022/06/03 00:03:57;;;;;;;6.47;4.20;;;;;;;;;;4987455;28;20125;-85
2022/06/03 00:06:30;;;;;;;6.40;3.95;;;;;;;;;;4993070;28;20112;-85
2022/06/03 00:09:05;;;;;;;7.90;4.78;;;;;;;;;;4979964;28;20047;-83
2022/06/03 00:11:46;;;;;;;6.88;4.25;;;;;;;;;;4982750;28;20419;-83
2022/06/03 00:14:15;;;;;;;7.63;4.75;;;;;;;;;;4995691;28;20050;-85
2022/06/03 00:16:48;;;;;;;8.07;4.78;;;;;;;;;;4982570;28;20081;-84
2022/06/03 00:19:15;;;;;;;7.65;4.82;;;;;;;;;;4978220;28;20558;-86
2022/06/03 00:21:41;;;;;;;8.88;4.68;;;;;;;;;;5002794;28;20034;-86
2022/06/03 00:24:11;;;;;;;8.65;4.50;;;;;;;;;;4977900;28;20526;-84
2022/06/03 00:26:48;;;;;;;7.03;4.25;;;;;;;;;;5001863;28;20381;-85
2022/06/03 00:29:14;;;;;;;9.57;4.72;;;;;;;;;;4979537;28;20379;-84
2022/06/03 00:31:56;;;;;;;8.65;4.55;;;;;;;;;;4974705;28;20050;-88
2022/06/03 00:34:25;;;;;;;8.10;4.45;;;;;;;;;;4987336;28;20058;-85
2022/06/03 00:37:10;;;;;;;7.18;4.45;;;;;;;;;;4972067;28;20482;-86
2022/06/03 00:39:42;;;;;;;6.82;4.55;;;;;;;;;;4996894;28;20046;-85
2022/06/03 00:42:15;;;;;;;9.75;4.93;;;;;;;;;;4975865;28;20458;-86
2022/06/03 00:45:00;;;;;;;10.80;4.97;;;;;;;;;;4983969;28;20558;-87
2022/06/03 00:47:38;;;;;;;10.32;4.93;;;;;;;;;;4972605;28;20383;-86
2022/06/03 00:50:31;;;;;;;10.88;5.50;;;;;;;;;;5000486;28;20134;-86
2022/06/03 00:53:16;;;;;;;8.20;5.00;;;;;;;;;;4978187;28;20053;-86
2022/06/03 00:56:04;;;;;;;11.75;4.97;;;;;;;;;;4970984;28;20055;-86
2022/06/03 00:58:33;;;;;;;7.80;4.78;;;;;;;;;;5006822;28;20065;-87
2022/06/03 01:01:18;;;;;;;7.13;4.60;;;;;;;;;;4978832;28;20038;-87
2022/06/03 01:03:50;;;;;;;8.00;5.00;;;;;;;;;;4985952;28;20494;-86
2022/06/03 01:06:26;;;;;;;8.70;5.18;;;;;;;;;;4971381;28;20290;-86
2022/06/03 01:08:53;;;;;;;;;;;;;;;;;;5017110;28;20093;-86
2022/06/03 01:11:38;;;;;;;8.50;4.85;;;;;;;;;;5005700;28;20366;-87
2022/06/03 01:14:15;;;;;;;8.27;5.00;;;;;;;;;;4988532;28;20042;-87
2022/06/03 01:17:06;;;;;;;9.55;5.10;;;;;;;;;;4976325;28;20047;-86
2022/06/03 01:20:00;;;;;;;7.85;4.63;;;;;;;;;;4975836;28;20351;-85
2022/06/03 01:22:35;;;;;;;9.63;5.18;;;;;;;;;;4951366;28;20043;-85
2022/06/03 01:25:01;;;;;;;9.65;6.00;;;;;;;;;;4972502;28;20501;-85
2022/06/03 01:27:46;;;;;;;10.35;4.95;;;;;;;;;;4994986;28;20056;-86
2022/06/03 01:30:20;;;;;;;10.95;5.38;;;;;;;;;;4986324;28;20461;-87
2022/06/03 01:33:05;;;;;;;10.75;5.68;;;;;;;;;;4988919;28;20266;-86
2022/06/03 01:35:46;;;;;;;7.60;5.05;;;;;;;;;;4974936;28;20034;-85
2022/06/03 01:38:12;;;;;;;12.07;5.13;;;;;;;;;;4977785;28;20053;-88
2022/06/03 01:40:48;;;;;;;9.45;5.18;;;;;;;;;;5003345;28;20096;-85
2022/06/03 01:43:34;;;;;;;7.53;3.83;;;;;;;;;;4990202;28;20576;-85
2022/06/03 01:46:19;;;;;;;10.05;5.43;;;;;;;;;;4971290;28;20384;-81
2022/06/03 01:48:57;;;;;;;11.00;5.47;;;;;;;;;;4993939;28;20057;-85
2022/06/03 01:51:33;;;;;;;9.30;5.00;;;;;;;;;;4970820;28;20495;-83
2022/06/03 01:53:59;;;;;;;8.90;5.30;;;;;;;;;;4973008;28;20072;-84
2022/06/03 01:56:25;;;;;;;9.05;5.55;;;;;;;;;;4989819;28;20053;-85
2022/06/03 01:58:57;;;;;;;9.75;5.63;;;;;;;;;;4985952;28;20049;-85
2022/06/03 02:01:35;;;;;;;10.02;4.90;;;;;;;;;;4985276;28;20043;-82
2022/06/03 02:04:19;;;;;;;9.32;5.18;;;;;;;;;;4953295;28;20047;-85
2022/06/03 02:06:52;;;;;;;8.95;5.25;;;;;;;;;;4968714;28;20072;-84
2022/06/03 02:09:33;;;;;;;11.70;6.10;;;;;;;;;;4970746;28;20038;-83
2022/06/03 02:11:59;;;;;;;7.68;5.13;;;;;;;;;;4977470;28;20141;-84
2022/06/03 02:14:44;;;;;;;9.10;5.25;;;;;;;;;;4985273;28;20090;-84
2022/06/03 02:17:18;;;;;;;9.30;5.38;;;;;;;;;;4998749;28;20038;-85
2022/06/03 02:20:00;;;;;;;9.48;5.65;;;;;;;;;;4988118;28;20105;-85
2022/06/03 02:22:29;;;;;;;10.23;5.72;;;;;;;;;;4992826;28;20114;-84
2022/06/03 02:25:10;;;;;;;10.82;5.90;;;;;;;;;;4978167;28;20685;-85
2022/06/03 02:27:55;;;;;;;9.85;5.38;;;;;;;;;;4980603;28;20393;-86
2022/06/03 02:30:30;;;;;;;11.25;5.78;;;;;;;;;;4985680;28;20042;-85
2022/06/03 02:33:11;;;;;;;10.27;5.45;;;;;;;;;;4999878;28;20086;-83
2022/06/03 02:35:41;;;;;;;9.77;5.50;;;;;;;;;;4962643;28;20399;-84
2022/06/03 02:38:15;;;;;;;14.13;5.88;;;;;;;;;;4977440;28;20042;-82
2022/06/03 02:40:57;;;;;;;11.27;6.13;;;;;;;;;;5002136;28;20053;-85
2022/06/03 02:43:42;;;;;;;10.88;6.20;;;;;;;;;;4972382;28;20126;-85
2022/06/03 02:46:14;;;;;;;9.88;5.38;;;;;;;;;;4979447;28;20042;-84
2022/06/03 02:49:01;;;;;;;9.40;5.35;;;;;;;;;;4987186;28;20053;-85
2022/06/03 02:51:36;;;;;;;11.80;5.72;;;;;;;;;;4985358;28;20034;-85
2022/06/03 02:54:02;;;;;;;12.02;5.93;;;;;;;;;;4985390;28;20142;-84
2022/06/03 02:56:47;;;;;;;9.48;5.80;;;;;;;;;;4969376;28;20043;-85
2022/06/03 02:59:13;;;;;;;10.13;5.50;;;;;;;;;;4972960;28;20031;-87
2022/06/03 03:01:54;;;;;;;12.68;5.93;;;;;;;;;;4984053;28;20045;-86
2022/06/03 03:04:39;;;;;;;10.30;6.03;;;;;;;;;;4975362;28;20501;-84
2022/06/03 03:07:12;;;;;;;10.98;6.10;;;;;;;;;;4986368;28;20487;-85
2022/06/03 03:09:41;;;;;;;10.77;6.25;;;;;;;;;;4970547;28;20039;-86
2022/06/03 03:12:10;;;;;;;11.73;6.07;;;;;;;;;;4972776;28;20073;-85
2022/06/03 03:14:57;;;;;;;9.63;6.03;;;;;;;;;;4991965;28;20047;-85
2022/06/03 03:17:33;;;;;;;11.02;5.80;;;;;;;;;;4983716;28;20076;-86
2022/06/03 03:20:14;;;;;;;10.82;6.90;;;;;;;;;;4976400;28;20120;-86
2022/06/03 03:23:16;;;;;;;11.55;6.40;;;;;;;;;;4967724;28;20130;-86
2022/06/03 03:25:52;;;;;;;11.80;6.40;;;;;;;;;;4932883;29;20490;-85
2022/06/03 03:28:36;;;;;;;10.07;5.43;;;;;;;;;;4992370;28;20046;-87
2022/06/03 03:31:12;;;;;;;13.60;6.95;;;;;;;;;;4974004;28;20038;-85
2022/06/03 03:33:56;;;;;;;10.95;6.63;;;;;;;;;;4970031;28;20053;-85
2022/06/03 03:36:25;;;;;;;10.52;6.55;;;;;;;;;;4990338;28;20034;-86
2022/06/03 03:39:01;;;;;;;10.85;5.93;;;;;;;;;;4969372;28;20093;-85
2022/06/03 03:41:41;;;;;;;11.60;6.32;;;;;;;;;;4988795;28;20042;-84
2022/06/03 03:44:39;;;;;;;10.73;6.32;;;;;;;;;;4972661;28;20078;-87
2022/06/03 03:47:41;;;;;;;9.75;6.00;;;;;;;;;;4969291;28;20055;-85
2022/06/03 03:50:17;;;;;;;11.48;6.50;;;;;;;;;;4924541;29;20526;-86
2022/06/03 03:52:46;;;;;;;9.52;5.82;;;;;;;;;;4963324;28;20066;-86
2022/06/03 03:55:38;;;;;;;9.55;5.90;;;;;;;;;;4996193;28;20075;-87
2022/06/03 03:58:11;;;;;;;8.90;5.40;;;;;;;;;;4985710;28;20170;-87
2022/06/03 04:00:55;;;;;;;7.82;5.68;;;;;;;;;;4985515;28;20050;-87
2022/06/03 04:03:40;;;;;;;11.70;5.95;;;;;;;;;;5004459;28;20486;-86
2022/06/03 04:06:26;;;;;;;7.93;5.47;;;;;;;;;;5003236;28;20108;-87
2022/06/03 04:09:05;;;;;;;8.88;5.88;;;;;;;;;;4966803;28;20609;-86
2022/06/03 04:11:50;;;;;;;10.32;5.93;;;;;;;;;;4970342;28;20097;-86
2022/06/03 04:14:19;;;;;;;11.27;6.18;;;;;;;;;;4999747;28;20050;-86
2022/06/03 04:17:04;;;;;;;10.98;6.38;;;;;;;;;;5001959;28;20050;-87
2022/06/03 04:19:36;;;;;;;8.50;5.50;;;;;;;;;;4983458;28;20474;-87
2022/06/03 04:22:15;;;;;;;9.43;6.03;;;;;;;;;;4980626;28;20050;-86
2022/06/03 04:24:54;;;;;;;11.05;5.97;;;;;;;;;;4981202;28;20046;-86
2022/06/03 04:27:27;;;;;;;7.93;5.20;;;;;;;;;;4989789;28;20044;-86
2022/06/03 04:29:53;;;;;;;10.00;5.70;;;;;;;;;;4982761;28;20113;-87
2022/06/03 04:32:31;;;;;;;7.50;5.50;;;;;;;;;;4972080;28;20042;-86
2022/06/03 04:35:12;;;;;;;8.93;5.05;;;;;;;;;;4964476;28;20137;-86
2022/06/03 04:37:57;;;;;;;7.70;4.90;;;;;;;;;;4999718;28;20446;-86
2022/06/03 04:40:49;;;;;;;8.65;5.40;;;;;;;;;;4961401;28;20454;-84
2022/06/03 04:43:35;;;;;;;6.90;4.60;;;;;;;;;;4946883;28;20102;-87
2022/06/03 04:46:07;;;;;;;10.77;5.22;;;;;;;;;;4968384;28;20049;-88
2022/06/03 04:48:52;;;;;;;7.47;4.43;;;;;;;;;;4984534;28;20074;-88
2022/06/03 04:51:24;;;;;;;9.40;4.47;;;;;;;;;;4971498;28;20097;-90
2022/06/03 04:54:04;;;;;;;7.57;3.85;;;;;;;;;;5007348;28;20050;-87
2022/06/03 04:56:30;;;;;;;7.63;4.70;;;;;;;;;;4990406;28;20114;-83
2022/06/03 04:59:05;;;;;;;6.13;3.90;;;;;;;;;;5006555;28;20118;-88
2022/06/03 05:01:31;;;;;;;7.00;4.47;;;;;;;;;;4962050;28;20486;-85
2022/06/03 05:04:03;;;;;;;7.65;4.72;;;;;;;;;;4977536;28;20046;-88
2022/06/03 05:06:48;;;;;;;7.45;5.03;;;;;;;;;;4968903;28;20042;-88
2022/06/03 05:09:37;;;;;;;9.27;4.80;;;;;;;;;;5008587;28;20074;-85
2022/06/03 05:12:14;;;;;;;7.18;5.00;;;;;;;;;;4987744;28;20483;-80
2022/06/03 05:14:52;;;;;;;5.72;3.85;;;;;;;;;;4961610;28;20038;-79
2022/06/03 05:17:37;;;;;;;8.15;4.57;;;;;;;;;;4970591;28;20491;-80
2022/06/03 05:20:06;;;;;;;9.95;4.22;;;;;;;;;;4981454;28;20050;-80
2022/06/03 05:22:51;;;;;;;5.65;4.00;;;;;;;;;;4973477;28;20039;-83
2022/06/03 05:25:20;;;;;;;8.52;4.20;;;;;;;;;;4972602;28;20050;-88
2022/06/03 05:28:00;;;;;;;4.70;3.60;;;;;;;;;;4983478;28;20124;-84
2022/06/03 05:30:44;;;;;;;5.43;3.20;;;;;;;;;;4993164;28;20537;-90
2022/06/03 05:33:11;;;;;;;5.30;3.70;;;;;;;;;;4971419;28;20403;-87
2022/06/03 05:35:42;;;;;;;6.60;3.30;;;;;;;;;;4987312;28;20454;-90
2022/06/03 05:38:27;;;;;;;4.20;2.90;;;;;;;;;;5001908;28;20502;-91
2022/06/03 05:42:23;;;;;;;6.28;3.45;;;;;;;;;;4976349;28;20042;-92
2022/06/03 05:44:17;;;;;;;6.55;3.03;;;;;;;;;;4970653;28;20113;-90
2022/06/03 05:47:01;;;;;;;5.95;3.38;;;;;;;;;;4991829;28;20039;-93
2022/06/03 05:49:39;;;;;;;4.68;2.88;;;;;;;;;;4987317;28;20588;-84
2022/06/03 05:52:18;;;;;;;4.38;2.85;;;;;;;;;;4979840;28;20102;-90
2022/06/03 05:55:03;;;;;;;5.00;2.80;;;;;;;;;;4961441;28;20097;-92
2022/06/03 05:57:32;;;;;;;4.40;2.63;;;;;;;;;;4963403;28;20410;-82
2022/06/03 06:00:10;;;;;;;3.97;2.30;;;;;;;;;;4984050;28;20050;-88
2022/06/03 06:02:57;;;;;;;5.60;2.75;;;;;;;;;;4976247;28;20124;-86
2022/06/03 06:05:23;;;;;;;5.45;2.10;;;;;;;;;;4996590;28;20034;-86
2022/06/03 06:07:52;;;;;;;4.63;2.35;;;;;;;;;;4970114;28;20086;-82
2022/06/03 06:10:28;;;;;;;3.38;2.10;;;;;;;;;;4998462;28;20449;-92
2022/06/03 06:13:01;;;;;;;6.97;2.35;;;;;;;;;;4975457;28;20581;-92
2022/06/03 06:15:46;;;;;;;4.72;2.10;;;;;;;;;;4986120;28;20039;-85
2022/06/03 06:18:18;;;;;;;4.70;1.92;;;;;;;;;;4973979;28;20058;-83
2022/06/03 06:21:00;;;;;;;3.00;2.03;;;;;;;;;;4972319;28;20100;-89
2022/06/03 06:23:39;;;;;;;3.92;1.98;;;;;;;;;;5013496;28;20077;-83
2022/06/03 06:26:16;;;;;;;3.92;1.80;;;;;;;;;;4997214;28;20038;-84
2022/06/03 06:28:45;;;;;;;4.07;1.75;;;;;;;;;;4974653;28;20046;-85
2022/06/03 06:31:30;;;;;;;2.60;1.83;;;;;;;;;;5013125;28;20046;-83
2022/06/03 06:34:15;;;;;;;3.60;2.05;;;;;;;;;;4987562;28;20048;-83
2022/06/03 06:37:00;;;;;;;4.72;1.70;;;;;;;;;;5014010;28;20046;-92
2022/06/03 06:39:45;;;;;;;3.20;1.70;;;;;;;;;;4975688;28;20045;-85
2022/06/03 06:42:17;;;;;;;4.65;2.00;;;;;;;;;;4988865;28;20042;-86
2022/06/03 06:44:49;;;;;;;5.65;2.17;;;;;;;;;;4984341;28;20052;-82
2022/06/03 06:47:34;;;;;;;5.05;1.95;;;;;;;;;;4975745;28;20050;-92
2022/06/03 06:50:21;;;;;;;3.60;1.85;;;;;;;;;;4982298;28;20533;-87
2022/06/03 06:53:10;;;;;;;3.40;1.50;;;;;;;;;;4997021;28;20081;-90
2022/06/03 06:55:55;;;;;;;4.47;1.60;;;;;;;;;;4976701;28;20039;-82
2022/06/03 06:58:57;;;;;;;3.83;1.95;;;;;;;;;;4984389;28;20094;-80
2022/06/03 07:01:25;;;;;;;6.32;1.90;;;;;;;;;;4938235;29;20044;-86
2022/06/03 07:03:52;;;;;;;3.63;2.00;;;;;;;;;;4954720;28;20062;-82
2022/06/03 07:06:21;;;;;;;3.42;1.83;;;;;;;;;;4952787;28;20047;-89
2022/06/03 07:08:58;;;;;;;4.40;1.98;;;;;;;;;;4984956;28;20089;-86
2022/06/03 07:11:30;;;;;;;3.33;1.83;;;;;;;;;;4963054;28;20399;-83
2022/06/03 07:13:56;;;;;;;3.97;1.90;;;;;;;;;;4969545;28;20051;-81
2022/06/03 07:19:47;;;;;;;5.95;2.00;;;;;;;;;;4989807;28;20039;-89
2022/06/03 07:19:57;;;;;;;3.67;1.80;;;;;;;;;;4951489;28;20057;-83
2022/06/03 07:22:18;;;;;;;4.85;1.80;;;;;;;;;;4960378;28;20059;-83
2022/06/03 07:24:59;;;;;;;2.53;1.60;;;;;;;;;;4988654;28;20043;-84
2022/06/03 07:27:36;;;;;;;4.35;1.70;;;;;;;;;;4971503;28;20049;-86
2022/06/03 07:30:10;;;;;;;3.15;1.58;;;;;;;;;;4958269;28;20074;-88
2022/06/03 07:32:42;;;;;;;3.95;1.98;;;;;;;;;;4980521;28;20499;-84
2022/06/03 07:35:15;;;;;;;3.22;1.90;;;;;;;;;;4996078;28;20126;-84
2022/06/03 07:37:48;;;;;;;2.47;1.58;;;;;;;;;;5009884;28;20126;-87
2022/06/03 07:40:26;;;;;;;5.75;2.00;;;;;;;;;;5001569;28;20051;-85
2022/06/03 07:43:22;;;;;;;4.10;1.75;;;;;;;;;;4963607;28;20047;-84
2022/06/03 07:46:11;;;;;;;5.45;2.00;;;;;;;;;;4954835;28;20050;-88
2022/06/03 07:48:38;;;;;;;3.50;1.58;;;;;;;;;;4987360;28;20039;-88
2022/06/03 07:51:04;;;;;;;3.85;1.70;;;;;;;;;;4971533;28;20042;-82
2022/06/03 07:54:06;;;;;;;4.05;1.75;;;;;;;;;;5003311;28;20043;-83
2022/06/03 07:56:33;;;;;;;3.10;1.73;;;;;;;;;;4935110;29;20044;-82
2022/06/03 07:59:01;;;;;;;3.15;1.70;;;;;;;;;;4944786;28;20051;-82
2022/06/03 08:01:27;;;;;;;3.70;1.77;;;;;;;;;;5002490;28;20047;-85
2022/06/03 08:03:53;;;;;;;4.03;2.08;;;;;;;;;;4970838;28;20054;-87
2022/06/03 08:06:27;;;;;;;3.95;1.88;;;;;;;;;;4985277;28;20039;-85
2022/06/03 08:11:42;;;;;;;5.05;2.03;;;;;;;;;;5001089;28;20039;-86
2022/06/03 08:14:08;;;;;;;3.53;2.10;;;;;;;;;;4959088;28;20050;-87
2022/06/03 08:16:41;;;;;;;3.05;1.90;;;;;;;;;;4988296;28;20100;-85
2022/06/03 08:19:07;;;;;;;3.92;1.85;;;;;;;;;;5000379;28;20102;-85
2022/06/03 08:21:46;;;;;;;3.10;2.03;;;;;;;;;;4988580;28;20090;-87
2022/06/03 08:24:17;;;;;;;2.90;1.95;;;;;;;;;;5018639;28;20074;-87
2022/06/03 08:26:45;;;;;;;4.00;2.00;;;;;;;;;;4987805;28;20494;-81
2022/06/03 08:29:11;;;;;;;3.15;2.00;;;;;;;;;;4990351;28;20039;-84
2022/06/03 08:31:37;;;;;;;6.07;2.10;;;;;;;;;;4958613;28;20031;-92
2022/06/03 08:34:04;;;;;;;4.32;2.00;;;;;;;;;;4991078;28;20051;-84
2022/06/03 08:36:32;;;;;;;4.45;2.33;;;;;;;;;;4979343;28;20050;-82
2022/06/03 08:39:05;;;;;;;4.68;2.45;;;;;;;;;;4986225;28;20038;-80
2022/06/03 08:41:37;;;;;;;4.55;2.40;;;;;;;;;;4987226;28;20438;-81
2022/06/03 08:44:08;;;;;;;5.47;2.22;;;;;;;;;;4968322;28;20097;-88
2022/06/03 08:46:48;;;;;;;3.92;2.55;;;;;;;;;;5001261;28;20046;-81
2022/06/03 08:49:18;;;;;;;3.80;2.40;;;;;;;;;;5003250;28;20035;-84
2022/06/03 08:51:48;;;;;;;5.43;2.05;;;;;;;;;;4978079;28;20041;-82
2022/06/03 08:54:21;;;;;;;5.80;2.75;;;;;;;;;;4980184;28;20049;-78
2022/06/03 08:56:50;;;;;;;6.28;2.90;;;;;;;;;;4962725;28;20058;-79
2022/06/03 08:59:24;;;;;;;4.45;2.58;;;;;;;;;;4972176;28;20517;-81
2022/06/03 09:01:56;;;;;;;6.63;3.10;;;;;;;;;;4989498;28;20035;-81
2022/06/03 09:04:22;;;;;;;5.43;2.53;;;;;;;;;;4977403;28;20101;-81
2022/06/03 09:07:02;;;;;;;5.00;3.10;;;;;;;;;;4987079;28;20066;-85
2022/06/03 09:09:34;;;;;;;3.70;2.35;;;;;;;;;;5001415;28;20045;-87
2022/06/03 09:12:19;;;;;;;3.65;2.58;;;;;;;;;;4975442;28;20043;-79
2022/06/03 09:14:47;;;;;;;5.20;2.70;;;;;;;;;;4979135;28;20058;-80
2022/06/03 09:17:32;;;;;;;5.43;2.80;;;;;;;;;;4987708;28;20306;-79
2022/06/03 09:20:01;;;;;;;4.00;2.90;;;;;;;;;;5015969;28;20148;-79
2022/06/03 09:22:31;;;;;;;4.78;2.88;;;;;;;;;;4972472;28;20089;-86
2022/06/03 09:24:58;;;;;;;4.78;2.60;;;;;;;;;;4971992;28;20117;-81
2022/06/03 09:27:25;;;;;;;4.88;2.65;;;;;;;;;;4987406;28;20035;-81
2022/06/03 09:29:54;;;;;;;4.72;2.78;;;;;;;;;;5003940;28;20058;-79
2022/06/03 09:32:21;;;;;;;4.60;2.67;;;;;;;;;;5000600;28;20105;-77
2022/06/03 09:34:49;;;;;;;3.65;2.30;;;;;;;;;;4999949;28;20042;-86
2022/06/03 09:37:16;;;;;;;4.15;2.50;;;;;;;;;;4976971;28;20054;-83
2022/06/03 09:39:44;;;;;;;5.78;2.45;;;;;;;;;;4969751;28;20495;-85
2022/06/03 09:42:12;;;;;;;4.60;2.40;;;;;;;;;;5001045;28;20049;-86
2022/06/03 09:44:38;;;;;;;4.13;2.40;;;;;;;;;;4971480;28;20214;-85
2022/06/03 09:47:06;;;;;;;4.75;1.95;;;;;;;;;;4977163;28;20083;-86
2022/06/03 09:49:32;;;;;;;3.67;2.30;;;;;;;;;;4974656;28;20043;-84
2022/06/03 09:52:00;;;;;;;6.22;2.47;;;;;;;;;;5001804;28;20057;-73
2022/06/03 09:54:30;;;;;;;7.28;2.15;;;;;;;;;;4979446;28;20122;-85
2022/06/03 09:57:04;;;;;;;3.47;2.05;;;;;;;;;;4977545;28;20047;-91
2022/06/03 09:59:32;;;;;;;6.03;1.83;;;;;;;;;;4988057;28;20487;-89
2022/06/03 10:01:58;;;;;;;3.75;1.98;;;;;;;;;;4989294;28;20043;-84
2022/06/03 10:04:24;;;;;;;3.80;1.90;;;;;;;;;;5002452;28;20122;-86
2022/06/03 10:06:51;;;;;;;7.47;2.40;;;;;;;;;;4988647;28;20065;-85
2022/06/03 10:15:37;;;;;;;4.55;1.83;;;;;;;;;;4988226;28;20046;-81
2022/06/03 10:17:33;;;;;;;3.13;2.20;;;;;;;;;;5014775;28;20105;-79
2022/06/03 10:20:00;;;;;;;3.72;2.03;;;;;;;;;;4987007;28;20062;-86
2022/06/03 10:22:26;;;;;;;3.47;2.28;;;;;;;;;;5000516;28;20097;-80
2022/06/03 10:24:56;;;;;;;5.10;2.20;;;;;;;;;;5004024;28;20074;-81
2022/06/03 10:27:22;;;;;;;4.97;2.05;;;;;;;;;;4973420;28;20548;-83
2022/06/03 10:29:51;;;;;;;3.22;2.10;;;;;;;;;;4984347;28;20034;-83
2022/06/03 10:32:19;;;;;;;4.93;1.90;;;;;;;;;;4976861;28;20046;-87
2022/06/03 10:34:47;;;;;;;13.60;2.10;;;;;;;;;;4998520;28;20054;-72
2022/06/03 10:37:15;;;;;;;5.93;2.00;;;;;;;;;;4977459;28;20054;-76
2022/06/03 10:39:44;;;;;;;3.92;1.90;;;;;;;;;;5002446;28;20042;-71
2022/06/03 10:42:17;;;;;;;2.70;1.70;;;;;;;;;;4971835;28;20046;-76
2022/06/03 10:44:45;;;;;;;3.13;1.70;;;;;;;;;;5000683;28;20494;-76
2022/06/03 10:47:20;;;;;;;3.42;1.80;;;;;;;;;;4999537;28;20100;-73
2022/06/03 10:49:57;;;;;;;5.03;1.85;;;;;;;;;;5000225;28;20066;-71
2022/06/03 11:01:12;;;;;;;3.47;1.88;;;;;;;;;;4976342;28;20089;-73
2022/06/03 11:03:42;;;;;;;3.47;2.25;;;;;;;;;;4984768;28;20035;-72
2022/06/03 11:06:14;;;;;;;6.38;1.60;;;;;;;;;;4975056;28;20038;-74
2022/06/03 11:08:48;;;;;;;3.15;1.90;;;;;;;;;;4995489;28;20081;-74
2022/06/03 11:11:14;;;;;;;2.55;1.90;;;;;;;;;;4993619;28;20459;-74
2022/06/03 11:13:40;;;;;;;3.50;1.80;;;;;;;;;;5004281;28;20061;-74
2022/06/03 11:16:23;;;;;;;6.13;2.50;;;;;;;;;;5001168;28;20126;-74
2022/06/03 11:18:49;;;;;;;3.53;1.60;;;;;;;;;;4976860;28;20065;-75
2022/06/03 11:21:20;;;;;;;2.47;1.77;;;;;;;;;;4984971;28;20047;-75
2022/06/03 11:23:46;;;;;;;3.08;2.00;;;;;;;;;;4973964;28;20380;-72
2022/06/03 11:26:12;;;;;;;6.10;2.60;;;;;;;;;;5014612;28;20039;-72
2022/06/03 11:28:41;;;;;;;5.28;2.00;;;;;;;;;;4987870;28;20042;-72
2022/06/03 11:31:10;;;;;;;2.45;1.65;;;;;;;;;;4976033;28;20108;-73
2022/06/03 11:33:38;;;;;;;3.10;2.05;;;;;;;;;;4972916;28;20461;-72
2022/06/03 11:36:06;;;;;;;2.67;1.52;;;;;;;;;;4973685;28;20039;-75
2022/06/03 11:38:49;;;;;;;3.13;1.70;;;;;;;;;;4981876;28;20093;-73
2022/06/03 11:41:18;;;;;;;4.07;2.00;;;;;;;;;;5007254;28;20043;-72
2022/06/03 11:43:50;;;;;;;2.92;1.80;;;;;;;;;;4995346;28;20378;-76
2022/06/03 11:46:23;;;;;;;2.60;1.50;;;;;;;;;;4976271;28;20058;-75
2022/06/03 11:48:51;;;;;;;4.28;1.90;;;;;;;;;;4996547;28;20077;-75
2022/06/03 11:51:18;;;;;;;3.45;1.95;;;;;;;;;;4979142;28;20061;-75
2022/06/03 11:53:49;;;;;;;3.42;1.98;;;;;;;;;;4980410;28;20047;-72
2022/06/03 11:56:20;;;;;;;2.80;1.60;;;;;;;;;;4977979;28;20106;-73
2022/06/03 11:59:06;;;;;;;3.50;1.98;;;;;;;;;;5000632;28;20129;-73
2022/06/03 12:01:36;;;;;;;4.95;1.70;;;;;;;;;;4978035;28;20378;-72
2022/06/03 12:04:20;;;;;;;4.72;1.40;;;;;;;;;;4978329;28;20030;-72
2022/06/03 12:07:09;;;;;;;2.42;1.80;;;;;;;;;;4975589;28;20384;-73
2022/06/03 12:09:48;;;;;;;3.67;1.70;;;;;;;;;;4957677;28;20054;-75
2022/06/03 12:15:33;;;;;;;3.03;1.75;;;;;;;;;;5002423;28;20520;-73
2022/06/03 12:18:22;;;;;;;3.28;1.55;;;;;;;;;;4981735;28;20050;-75
2022/06/03 12:20:55;;;;;;;3.35;2.13;;;;;;;;;;5006483;28;20058;-74
2022/06/03 12:23:21;;;;;;;2.65;1.73;;;;;;;;;;5006543;28;20077;-74
2022/06/03 12:25:54;;;;;;;3.30;1.60;;;;;;;;;;4973309;28;20039;-74
2022/06/03 12:28:22;;;;;;;3.22;1.70;;;;;;;;;;5004729;28;20126;-76
2022/06/03 12:30:53;;;;;;;3.80;1.70;;;;;;;;;;4971237;28;20406;-75
2022/06/03 12:33:28;;;;;;;4.88;2.13;;;;;;;;;;4981880;28;20093;-75
2022/06/03 13:17:31;;;;;;;3.22;1.90;;;;;;;;;;4991955;28;20056;-75
2022/06/03 13:19:58;;;;;;;2.80;2.08;;;;;;;;;;4943281;23;20053;-71
2022/06/03 13:22:28;;;;;;;2.88;1.88;;;;;;;;;;5013907;28;20033;-72
2022/06/03 13:25:28;;;;;;;3.47;2.00;;;;;;;;;;5019244;28;20041;-71
2022/06/03 13:28:04;;;;;;;3.65;1.83;;;;;;;;;;4966178;28;20183;-71
2022/06/03 13:30:35;;;;;;;3.90;1.73;;;;;;;;;;5011472;28;20048;-70
2022/06/03 13:33:12;;;;;;;2.97;1.75;;;;;;;;;;5030320;28;20164;-70
2022/06/03 13:36:02;;;;;;;4.55;1.83;;;;;;;;;;5029442;28;20049;-72
2022/06/03 13:38:46;;;;;;;6.03;1.98;;;;;;;;;;5004121;28;20055;-80
2022/06/03 13:44:17;;;;;;;3.97;2.13;;;;;;;;;;5014146;28;20559;-76
2022/06/03 13:46:43;;;;;;;;;;;;;;;;;;5028354;28;20080;-74
2022/06/03 13:49:18;;;;;;;3.38;1.80;;;;;;;;;;5013320;28;19963;-74
2022/06/03 13:51:44;;;;;;;3.88;1.80;;;;;;;;;;5013812;28;20045;-74
2022/06/03 13:54:20;;;;;;;3.75;1.80;;;;;;;;;;5012709;28;20504;-73
2022/06/03 13:56:52;;;;;;;6.20;2.20;;;;;;;;;;5028689;28;20099;-75
2022/06/03 13:59:18;;;;;;;7.15;2.00;;;;;;;;;;5029877;28;20045;-74
2022/06/03 14:01:46;;;;;;;5.20;1.85;;;;;;;;;;5029629;28;20045;-74
2022/06/03 14:04:21;;;;;;;4.15;1.92;;;;;;;;;;5029588;28;20083;-75
2022/06/03 14:07:04;;;;;;;5.40;1.70;;;;;;;;;;5029227;28;20484;-73
2022/06/03 14:09:33;;;;;;;2.30;1.50;;;;;;;;;;5013318;28;20034;-75
2022/06/03 14:12:18;;;;;;;3.30;1.38;;;;;;;;;;5030145;28;20030;-74
2022/06/03 14:14:54;;;;;;;7.87;1.67;;;;;;;;;;5027120;28;20053;-75
2022/06/03 14:17:32;;;;;;;3.22;1.65;;;;;;;;;;5012431;28;20049;-76
2022/06/03 14:20:04;;;;;;;3.78;1.80;;;;;;;;;;5012430;28;20077;-75
2022/06/03 14:22:30;;;;;;;3.03;1.50;;;;;;;;;;5029443;28;20100;-75
2022/06/03 14:25:15;;;;;;;4.40;1.90;;;;;;;;;;5028910;28;20029;-76
2022/06/03 14:28:01;;;;;;;2.92;1.70;;;;;;;;;;5009943;28;20041;-74
2022/06/03 14:30:46;;;;;;;4.97;1.70;;;;;;;;;;5012998;28;20068;-75
2022/06/03 14:33:13;;;;;;;4.57;1.50;;;;;;;;;;5030213;28;20034;-77
2022/06/03 14:35:42;;;;;;;2.85;1.70;;;;;;;;;;5013960;28;20049;-74
2022/06/03 14:38:18;;;;;;;3.42;1.50;;;;;;;;;;5013382;28;20052;-75
2022/06/03 14:40:47;;;;;;;3.92;1.58;;;;;;;;;;5013653;28;20475;-77
2022/06/03 14:43:16;;;;;;;6.38;1.90;;;;;;;;;;5029632;28;20034;-75
2022/06/03 14:45:45;;;;;;;2.45;1.52;;;;;;;;;;5012792;28;20499;-75
2022/06/03 14:48:13;;;;;;;3.08;1.40;;;;;;;;;;5012763;28;20056;-75
2022/06/03 14:50:46;;;;;;;2.35;1.58;;;;;;;;;;5012766;28;20052;-76
2022/06/03 14:53:18;;;;;;;3.95;1.80;;;;;;;;;;5013360;28;20436;-75
2022/06/03 14:55:46;;;;;;;6.20;1.80;;;;;;;;;;5034152;28;20052;-74
2022/06/03 14:58:17;;;;;;;2.42;1.73;;;;;;;;;;5029201;28;20496;-75
2022/06/03 15:00:53;;;;;;;3.83;1.40;;;;;;;;;;5013070;28;20037;-76
2022/06/03 15:03:19;;;;;;;;;;;;;;;;;;5030370;28;20087;-77
2022/06/03 15:06:11;;;;;;;2.60;1.40;;;;;;;;;;5011078;28;19917;-76
2022/06/03 15:08:50;;;;;;;9.85;2.10;;;;;;;;;;5006562;28;20055;-82
2022/06/03 15:11:31;;;;;;;2.55;1.55;;;;;;;;;;5011466;28;20033;-81
2022/06/03 15:13:57;;;;;;;5.13;1.63;;;;;;;;;;5014905;28;20041;-82
2022/06/03 15:16:24;;;;;;;6.18;1.50;;;;;;;;;;5015673;28;20042;-78
2022/06/03 15:18:50;;;;;;;3.80;1.73;;;;;;;;;;5014968;28;20077;-79
2022/06/03 15:21:23;;;;;;;4.78;1.70;;;;;;;;;;5014860;28;20037;-80
2022/06/03 15:23:52;;;;;;;4.32;1.50;;;;;;;;;;5015330;28;20041;-81
2022/06/03 15:26:20;;;;;;;5.40;1.38;;;;;;;;;;5012769;28;20040;-79
2022/06/03 15:28:55;;;;;;;3.17;1.40;;;;;;;;;;5013748;28;20132;-78
2022/06/03 15:31:23;;;;;;;9.77;1.65;;;;;;;;;;5013420;28;20121;-80
2022/06/03 15:33:59;;;;;;;15.00;1.70;;;;;;;;;;5013781;28;20048;-80
2022/06/03 15:36:30;;;;;;;8.30;1.52;;;;;;;;;;5012188;28;20480;-80
2022/06/03 15:39:33;;;;;;;11.32;1.70;;;;;;;;;;5039037;28;20045;-78
2022/06/03 15:42:00;;;;;;;4.30;1.40;;;;;;;;;;4934506;29;20050;-83
2022/06/03 15:44:37;;;;;;;8.57;1.40;;;;;;;;;;4995643;28;20046;-80
2022/06/03 15:47:05;;;;;;;1.77;1.20;;;;;;;;;;5030574;28;20041;-81
2022/06/03 15:49:33;;;;;;;3.03;1.40;;;;;;;;;;5016626;28;20041;-77
2022/06/03 15:51:59;;;;;;;4.10;1.15;;;;;;;;;;5014509;28;20105;-80
2022/06/03 15:54:30;;;;;;;5.55;1.23;;;;;;;;;;5030775;28;20083;-78
2022/06/03 15:57:07;;;;;;;4.68;1.20;;;;;;;;;;5013277;28;20038;-81
2022/06/03 15:59:39;;;;;;;2.63;1.02;;;;;;;;;;5013229;28;20047;-79
2022/06/03 16:02:08;;;;;;;5.40;1.17;;;;;;;;;;5032170;28;20116;-82
2022/06/03 16:04:36;;;;;;;3.22;1.15;;;;;;;;;;5030747;28;20037;-78
2022/06/03 16:07:15;;;;;;;2.90;1.02;;;;;;;;;;5010193;28;20046;-81
2022/06/03 16:09:53;;;;;;;3.83;1.20;;;;;;;;;;5012865;28;20059;-80
2022/06/03 16:12:28;;;;;;;12.50;1.42;;;;;;;;;;5016005;28;20386;-81
2022/06/03 16:14:54;;;;;;;1.77;1.05;;;;;;;;;;5027386;28;20100;-83
2022/06/03 16:17:29;;;;;;;2.10;1.13;;;;;;;;;;5014653;28;20551;-77
2022/06/03 16:19:55;;;;;;;;;;;;;;;;;;5031683;28;20057;-80
2022/06/03 16:22:21;;;;;;;;;;;;;;;;;;5016397;28;19931;-84
2022/06/03 16:25:03;;;;;;;5.95;1.30;;;;;;;;;;5014433;28;20145;-82
2022/06/03 16:28:02;;;;;;;3.95;1.33;;;;;;;;;;5014160;28;20444;-80
2022/06/03 16:30:36;;;;;;;3.83;1.38;;;;;;;;;;5000148;28;20085;-78
2022/06/03 16:33:21;;;;;;;7.40;1.30;;;;;;;;;;5014507;28;20522;-76
2022/06/03 16:36:01;;;;;;;3.47;1.00;;;;;;;;;;5014283;28;20045;-79